sensor_id;sensor_type;location;lat;lon;timestamp;pressure;altitude;pressure_sealevel;temperature
15453;BMP280;7827;53.594;9.938;2023-09-19T00:01:47;27233.03;;;-135.29
15453;BMP280;7827;53.594;9.938;2023-09-19T00:04:18;27294.88;;;-135.29
15453;BMP280;7827;53.594;9.938;2023-09-19T00:06:50;27472.72;;;-135.29
15453;BMP280;7827;53.594;9.938;2023-09-19T00:09:20;27263.97;;;-135.29
15453;BMP280;7827;53.594;9.938;2023-09-19T00:11:50;27376.06;;;-135.29
15453;BMP280;7827;53.594;9.938;2023-09-19T00:14:18;27302.63;;;-135.29
15453;BMP280;7827;53.594;9.938;2023-09-19T00:16:46;27366.41;;;-135.29
15453;BMP280;7827;53.594;9.938;2023-09-19T00:19:18;27466.91;;;-135.29
15453;BMP280;7827;53.594;9.938;2023-09-19T00:21:46;27530.72;;;-135.29
15453;BMP280;7827;53.594;9.938;2023-09-19T00:24:14;27571.31;;;-135.29
15453;BMP280;7827;53.594;9.938;2023-09-19T00:26:44;27816.81;;;-135.29
15453;BMP280;7827;53.594;9.938;2023-09-19T00:29:15;27379.94;;;-135.29
15453;BMP280;7827;53.594;9.938;2023-09-19T00:31:45;27526.84;;;-135.29
15453;BMP280;7827;53.594;9.938;2023-09-19T00:34:14;27526.84;;;-135.29
15453;BMP280;7827;53.594;9.938;2023-09-19T00:36:45;27782.03;;;-135.29
15453;BMP280;7827;53.594;9.938;2023-09-19T00:39:14;27615.78;;;-135.29
15453;BMP280;7827;53.594;9.938;2023-09-19T00:41:42;27716.28;;;-135.29
15453;BMP280;7827;53.594;9.938;2023-09-19T00:44:11;27667.97;;;-135.29
15453;BMP280;7827;53.594;9.938;2023-09-19T00:46:40;27648.63;;;-135.29
15453;BMP280;7827;53.594;9.938;2023-09-19T00:49:09;27888.34;;;-135.29
15453;BMP280;7827;53.594;9.938;2023-09-19T00:51:39;27627.38;;;-135.29
15453;BMP280;7827;53.594;9.938;2023-09-19T00:54:10;27619.63;;;-135.29
15453;BMP280;7827;53.594;9.938;2023-09-19T00:56:40;27650.56;;;-135.29
15453;BMP280;7827;53.594;9.938;2023-09-19T00:59:09;27673.75;;;-135.29
15453;BMP280;7827;53.594;9.938;2023-09-19T01:01:39;27615.78;;;-135.29
15453;BMP280;7827;53.594;9.938;2023-09-19T01:04:09;27774.28;;;-135.29
15453;BMP280;7827;53.594;9.938;2023-09-19T01:06:37;27743.34;;;-135.29
15453;BMP280;7827;53.594;9.938;2023-09-19T01:09:06;27762.69;;;-135.29
15453;BMP280;7827;53.594;9.938;2023-09-19T01:11:43;27604.16;;;-135.29
15453;BMP280;7827;53.594;9.938;2023-09-19T01:14:23;27834.22;;;-135.29
15453;BMP280;7827;53.594;9.938;2023-09-19T01:17:06;27727.88;;;-135.29
15453;BMP280;7827;53.594;9.938;2023-09-19T01:20:24;27782.03;;;-135.29
15453;BMP280;7827;53.594;9.938;2023-09-19T01:23:11;27836.16;;;-135.29
15453;BMP280;7827;53.594;9.938;2023-09-19T01:26:05;27909.63;;;-135.29
15453;BMP280;7827;53.594;9.938;2023-09-19T01:29:05;28006.28;;;-135.29
15453;BMP280;7827;53.594;9.938;2023-09-19T01:31:44;27743.34;;;-135.29
15453;BMP280;7827;53.594;9.938;2023-09-19T01:34:13;27758.81;;;-135.29
15453;BMP280;7827;53.594;9.938;2023-09-19T01:36:41;27847.75;;;-135.29
15453;BMP280;7827;53.594;9.938;2023-09-19T01:39:12;28164.81;;;-135.29
15453;BMP280;7827;53.594;9.938;2023-09-19T01:41:56;27832.28;;;-135.29
15453;BMP280;7827;53.594;9.938;2023-09-19T01:44:38;27822.63;;;-135.29
15453;BMP280;7827;53.594;9.938;2023-09-19T01:47:19;28041.09;;;-135.29
15453;BMP280;7827;53.594;9.938;2023-09-19T01:50:02;28139.69;;;-135.29
15453;BMP280;7827;53.594;9.938;2023-09-19T01:52:42;28044.94;;;-135.29
15453;BMP280;7827;53.594;9.938;2023-09-19T01:55:16;28101.03;;;-135.29
15453;BMP280;7827;53.594;9.938;2023-09-19T01:58:08;28222.84;;;-135.29
15453;BMP280;7827;53.594;9.938;2023-09-19T02:00:42;28360.13;;;-135.29
15453;BMP280;7827;53.594;9.938;2023-09-19T02:03:14;28383.31;;;-135.29
15453;BMP280;7827;53.594;9.938;2023-09-19T02:05:49;28539.94;;;-135.29
15453;BMP280;7827;53.594;9.938;2023-09-19T02:08:20;28280.84;;;-135.29
15453;BMP280;7827;53.594;9.938;2023-09-19T02:10:51;28381.38;;;-135.29
15453;BMP280;7827;53.594;9.938;2023-09-19T02:13:22;28464.53;;;-135.29
15453;BMP280;7827;53.594;9.938;2023-09-19T02:15:52;28365.91;;;-135.29
15453;BMP280;7827;53.594;9.938;2023-09-19T02:18:21;28452.94;;;-135.29
15453;BMP280;7827;53.594;9.938;2023-09-19T02:20:50;28555.41;;;-135.29
15453;BMP280;7827;53.594;9.938;2023-09-19T02:23:20;28551.56;;;-135.29
15453;BMP280;7827;53.594;9.938;2023-09-19T02:25:53;28601.84;;;-135.29
15453;BMP280;7827;53.594;9.938;2023-09-19T02:28:21;28362.06;;;-135.29
15453;BMP280;7827;53.594;9.938;2023-09-19T02:30:51;28586.38;;;-135.29
15453;BMP280;7827;53.594;9.938;2023-09-19T02:33:20;28596.03;;;-135.29
15453;BMP280;7827;53.594;9.938;2023-09-19T02:35:55;28685.00;;;-135.29
15453;BMP280;7827;53.594;9.938;2023-09-19T02:38:26;28675.31;;;-135.29
15453;BMP280;7827;53.594;9.938;2023-09-19T02:40:55;28503.22;;;-135.29
15453;BMP280;7827;53.594;9.938;2023-09-19T02:43:24;28470.34;;;-135.29
15453;BMP280;7827;53.594;9.938;2023-09-19T02:45:53;28683.06;;;-135.29
15453;BMP280;7827;53.594;9.938;2023-09-19T02:48:26;28802.97;;;-135.29
15453;BMP280;7827;53.594;9.938;2023-09-19T02:50:55;28727.53;;;-135.29
15453;BMP280;7827;53.594;9.938;2023-09-19T02:53:24;28802.97;;;-135.29
15453;BMP280;7827;53.594;9.938;2023-09-19T02:55:53;28669.53;;;-135.29
15453;BMP280;7827;53.594;9.938;2023-09-19T02:58:22;28841.63;;;-135.29
15453;BMP280;7827;53.594;9.938;2023-09-19T03:00:52;28698.53;;;-135.29
15453;BMP280;7827;53.594;9.938;2023-09-19T03:03:25;28702.41;;;-135.29
15453;BMP280;7827;53.594;9.938;2023-09-19T03:05:56;28849.38;;;-135.29
15453;BMP280;7827;53.594;9.938;2023-09-19T03:08:26;28671.44;;;-135.29
15453;BMP280;7827;53.594;9.938;2023-09-19T03:10:54;28714.00;;;-135.29
15453;BMP280;7827;53.594;9.938;2023-09-19T03:13:23;28625.03;;;-135.29
15453;BMP280;7827;53.594;9.938;2023-09-19T03:15:54;28557.34;;;-135.29
15453;BMP280;7827;53.594;9.938;2023-09-19T03:18:27;28849.38;;;-135.29
15453;BMP280;7827;53.594;9.938;2023-09-19T03:20:56;28615.38;;;-135.29
15453;BMP280;7827;53.594;9.938;2023-09-19T03:23:28;28725.59;;;-135.29
15453;BMP280;7827;53.594;9.938;2023-09-19T03:25:57;28777.81;;;-135.29
15453;BMP280;7827;53.594;9.938;2023-09-19T03:28:26;28539.94;;;-135.29
15453;BMP280;7827;53.594;9.938;2023-09-19T03:30:59;28568.97;;;-135.29
15453;BMP280;7827;53.594;9.938;2023-09-19T03:33:31;28741.06;;;-135.29
15453;BMP280;7827;53.594;9.938;2023-09-19T03:36:02;28787.47;;;-135.29
15453;BMP280;7827;53.594;9.938;2023-09-19T03:38:33;28913.19;;;-135.29
15453;BMP280;7827;53.594;9.938;2023-09-19T03:41:02;28864.84;;;-135.29
15453;BMP280;7827;53.594;9.938;2023-09-19T03:43:33;29007.97;;;-135.29
15453;BMP280;7827;53.594;9.938;2023-09-19T03:46:03;28965.41;;;-135.29
15453;BMP280;7827;53.594;9.938;2023-09-19T03:48:34;28810.69;;;-135.29
15453;BMP280;7827;53.594;9.938;2023-09-19T03:51:03;29139.47;;;-135.29
15453;BMP280;7827;53.594;9.938;2023-09-19T03:53:32;28938.34;;;-135.29
15453;BMP280;7827;53.594;9.938;2023-09-19T03:56:00;28973.16;;;-135.29
15453;BMP280;7827;53.594;9.938;2023-09-19T03:58:32;28723.66;;;-135.29
15453;BMP280;7827;53.594;9.938;2023-09-19T04:01:05;28756.53;;;-135.29
15453;BMP280;7827;53.594;9.938;2023-09-19T04:03:35;29077.59;;;-135.29
15453;BMP280;7827;53.594;9.938;2023-09-19T04:06:13;28955.75;;;-135.29
15453;BMP280;7827;53.594;9.938;2023-09-19T04:08:42;28919.00;;;-135.29
15453;BMP280;7827;53.594;9.938;2023-09-19T04:11:12;29042.78;;;-135.29
15453;BMP280;7827;53.594;9.938;2023-09-19T04:13:40;29073.72;;;-135.29
15453;BMP280;7827;53.594;9.938;2023-09-19T04:16:09;29301.97;;;-135.29
15453;BMP280;7827;53.594;9.938;2023-09-19T04:18:39;29216.84;;;-135.29
15453;BMP280;7827;53.594;9.938;2023-09-19T04:21:08;29348.38;;;-135.29
15453;BMP280;7827;53.594;9.938;2023-09-19T04:23:37;29565.03;;;-135.29
15453;BMP280;7827;53.594;9.938;2023-09-19T04:26:05;29855.22;;;-135.29
15453;BMP280;7827;53.594;9.938;2023-09-19T04:28:34;29418.03;;;-135.29
15453;BMP280;7827;53.594;9.938;2023-09-19T04:31:06;29416.09;;;-135.29
15453;BMP280;7827;53.594;9.938;2023-09-19T04:33:36;29570.84;;;-135.29
15453;BMP280;7827;53.594;9.938;2023-09-19T04:36:06;29588.25;;;-135.29
15453;BMP280;7827;53.594;9.938;2023-09-19T04:38:55;29626.94;;;-135.29
15453;BMP280;7827;53.594;9.938;2023-09-19T04:41:23;29661.75;;;-135.29
15453;BMP280;7827;53.594;9.938;2023-09-19T04:43:52;29700.44;;;-135.29
15453;BMP280;7827;53.594;9.938;2023-09-19T04:46:20;29754.63;;;-135.29
15453;BMP280;7827;53.594;9.938;2023-09-19T04:48:49;29712.06;;;-135.29
15453;BMP280;7827;53.594;9.938;2023-09-19T04:51:18;29915.19;;;-135.29
15453;BMP280;7827;53.594;9.938;2023-09-19T04:53:47;29878.44;;;-135.29
15453;BMP280;7827;53.594;9.938;2023-09-19T04:56:16;29861.03;;;-135.29
15453;BMP280;7827;53.594;9.938;2023-09-19T04:58:44;29816.53;;;-135.29
15453;BMP280;7827;53.594;9.938;2023-09-19T05:01:13;29878.44;;;-135.29
15453;BMP280;7827;53.594;9.938;2023-09-19T05:03:43;29772.03;;;-135.29
15453;BMP280;7827;53.594;9.938;2023-09-19T05:06:12;29754.63;;;-135.29
15453;BMP280;7827;53.594;9.938;2023-09-19T05:08:42;29921.00;;;-135.29
15453;BMP280;7827;53.594;9.938;2023-09-19T05:11:10;29816.53;;;-135.29
15453;BMP280;7827;53.594;9.938;2023-09-19T05:13:38;29988.72;;;-135.29
15453;BMP280;7827;53.594;9.938;2023-09-19T05:16:07;29688.84;;;-135.29
15453;BMP280;7827;53.594;9.938;2023-09-19T05:18:37;29961.63;;;-135.29
15453;BMP280;7827;53.594;9.938;2023-09-19T05:21:06;29977.13;;;-135.29
15453;BMP280;7827;53.594;9.938;2023-09-19T05:23:35;29886.19;;;-135.29
15453;BMP280;7827;53.594;9.938;2023-09-19T05:26:06;30040.97;;;-135.29
15453;BMP280;7827;53.594;9.938;2023-09-19T05:28:34;29988.72;;;-135.29
15453;BMP280;7827;53.594;9.938;2023-09-19T05:31:02;29967.44;;;-135.29
15453;BMP280;7827;53.594;9.938;2023-09-19T05:33:31;29928.75;;;-135.29
15453;BMP280;7827;53.594;9.938;2023-09-19T05:36:00;29868.78;;;-135.29
15453;BMP280;7827;53.594;9.938;2023-09-19T05:38:28;29625.00;;;-135.29
15453;BMP280;7827;53.594;9.938;2023-09-19T05:40:57;29866.84;;;-135.29
15453;BMP280;7827;53.594;9.938;2023-09-19T05:43:27;29855.22;;;-135.29
15453;BMP280;7827;53.594;9.938;2023-09-19T05:45:55;29816.53;;;-135.29
15453;BMP280;7827;53.594;9.938;2023-09-19T05:48:24;29824.28;;;-135.29
15453;BMP280;7827;53.594;9.938;2023-09-19T05:50:52;30011.94;;;-135.29
15453;BMP280;7827;53.594;9.938;2023-09-19T05:53:20;30106.75;;;-135.29
15453;BMP280;7827;53.594;9.938;2023-09-19T05:55:50;29924.88;;;-135.29
15453;BMP280;7827;53.594;9.938;2023-09-19T05:58:20;29936.47;;;-135.29
15453;BMP280;7827;53.594;9.938;2023-09-19T06:00:50;30023.53;;;-135.29
15453;BMP280;7827;53.594;9.938;2023-09-19T06:03:19;29781.72;;;-135.29
15453;BMP280;7827;53.594;9.938;2023-09-19T06:05:47;29851.34;;;-135.29
15453;BMP280;7827;53.594;9.938;2023-09-19T06:08:16;29773.97;;;-135.29
15453;BMP280;7827;53.594;9.938;2023-09-19T06:10:46;29862.97;;;-135.29
15453;BMP280;7827;53.594;9.938;2023-09-19T06:13:16;29870.69;;;-135.29
15453;BMP280;7827;53.594;9.938;2023-09-19T06:15:44;29862.97;;;-135.29
15453;BMP280;7827;53.594;9.938;2023-09-19T06:18:15;29592.13;;;-135.29
15453;BMP280;7827;53.594;9.938;2023-09-19T06:20:47;29551.50;;;-135.29
15453;BMP280;7827;53.594;9.938;2023-09-19T06:23:20;29448.97;;;-135.29
15453;BMP280;7827;53.594;9.938;2023-09-19T06:25:49;29508.94;;;-135.29
15453;BMP280;7827;53.594;9.938;2023-09-19T06:28:18;29162.69;;;-135.29
15453;BMP280;7827;53.594;9.938;2023-09-19T06:30:51;29145.28;;;-135.29
15453;BMP280;7827;53.594;9.938;2023-09-19T06:33:20;29387.06;;;-135.29
15453;BMP280;7827;53.594;9.938;2023-09-19T06:35:49;29379.34;;;-135.29
15453;BMP280;7827;53.594;9.938;2023-09-19T06:38:20;29127.88;;;-135.29
15453;BMP280;7827;53.594;9.938;2023-09-19T06:40:48;29104.66;;;-135.29
15453;BMP280;7827;53.594;9.938;2023-09-19T06:43:17;29176.22;;;-135.29
15453;BMP280;7827;53.594;9.938;2023-09-19T06:45:46;29242.00;;;-135.29
15453;BMP280;7827;53.594;9.938;2023-09-19T06:48:14;29259.41;;;-135.29
15453;BMP280;7827;53.594;9.938;2023-09-19T06:50:45;29578.56;;;-135.29
15453;BMP280;7827;53.594;9.938;2023-09-19T06:53:15;29338.72;;;-135.29
15453;BMP280;7827;53.594;9.938;2023-09-19T06:55:43;29183.97;;;-135.29
15453;BMP280;7827;53.594;9.938;2023-09-19T06:58:12;28973.16;;;-135.29
15453;BMP280;7827;53.594;9.938;2023-09-19T07:00:40;28913.19;;;-135.29
15453;BMP280;7827;53.594;9.938;2023-09-19T07:03:09;28768.16;;;-135.29
15453;BMP280;7827;53.594;9.938;2023-09-19T07:05:40;28791.34;;;-135.29
15453;BMP280;7827;53.594;9.938;2023-09-19T07:08:11;28818.44;;;-135.29
15453;BMP280;7827;53.594;9.938;2023-09-19T07:10:42;28959.63;;;-135.29
15453;BMP280;7827;53.594;9.938;2023-09-19T07:13:16;28884.19;;;-135.29
15453;BMP280;7827;53.594;9.938;2023-09-19T07:15:45;28739.13;;;-135.29
15453;BMP280;7827;53.594;9.938;2023-09-19T07:18:16;28874.50;;;-135.29
15453;BMP280;7827;53.594;9.938;2023-09-19T07:20:46;28706.25;;;-135.29
15453;BMP280;7827;53.594;9.938;2023-09-19T07:23:20;28909.31;;;-135.29
15453;BMP280;7827;53.594;9.938;2023-09-19T07:25:50;28924.78;;;-135.29
15453;BMP280;7827;53.594;9.938;2023-09-19T07:28:18;28909.31;;;-135.29
15453;BMP280;7827;53.594;9.938;2023-09-19T07:30:47;28884.19;;;-135.29
15453;BMP280;7827;53.594;9.938;2023-09-19T07:33:15;28835.84;;;-135.29
15453;BMP280;7827;53.594;9.938;2023-09-19T07:35:46;28505.16;;;-135.29
15453;BMP280;7827;53.594;9.938;2023-09-19T07:38:15;28775.88;;;-135.29
15453;BMP280;7827;53.594;9.938;2023-09-19T07:40:45;28597.97;;;-135.29
15453;BMP280;7827;53.594;9.938;2023-09-19T07:43:14;28903.53;;;-135.29
15453;BMP280;7827;53.594;9.938;2023-09-19T07:45:42;28977.03;;;-135.29
15453;BMP280;7827;53.594;9.938;2023-09-19T07:48:11;28843.56;;;-135.29
15453;BMP280;7827;53.594;9.938;2023-09-19T07:50:42;28748.81;;;-135.29
15453;BMP280;7827;53.594;9.938;2023-09-19T07:53:11;28818.44;;;-135.29
15453;BMP280;7827;53.594;9.938;2023-09-19T07:55:41;29329.03;;;-135.29
15453;BMP280;7827;53.594;9.938;2023-09-19T07:58:11;29441.22;;;-135.29
15453;BMP280;7827;53.594;9.938;2023-09-19T08:00:40;29541.81;;;-135.29
15453;BMP280;7827;53.594;9.938;2023-09-19T08:03:08;29714.00;;;-135.29
15453;BMP280;7827;53.594;9.938;2023-09-19T08:05:44;29704.31;;;-135.29
15453;BMP280;7827;53.594;9.938;2023-09-19T08:08:14;29452.84;;;-135.29
15453;BMP280;7827;53.594;9.938;2023-09-19T08:11:00;29835.88;;;-135.29
15453;BMP280;7827;53.594;9.938;2023-09-19T08:13:54;29797.19;;;-135.29
15453;BMP280;7827;53.594;9.938;2023-09-19T08:16:48;29921.00;;;-135.29
15453;BMP280;7827;53.594;9.938;2023-09-19T08:22:38;29615.34;;;-135.29
15453;BMP280;7827;53.594;9.938;2023-09-19T08:25:10;29537.97;;;-135.29
15453;BMP280;7827;53.594;9.938;2023-09-19T08:27:45;29209.13;;;-135.29
15453;BMP280;7827;53.594;9.938;2023-09-19T08:30:21;29369.66;;;-135.29
15453;BMP280;7827;53.594;9.938;2023-09-19T08:32:57;29394.81;;;-135.29
15453;BMP280;7827;53.594;9.938;2023-09-19T08:35:27;29042.78;;;-135.29
15453;BMP280;7827;53.594;9.938;2023-09-19T08:37:55;28959.63;;;-135.29
15453;BMP280;7827;53.594;9.938;2023-09-19T08:40:24;28810.69;;;-135.29
15453;BMP280;7827;53.594;9.938;2023-09-19T08:42:57;28615.38;;;-135.29
15453;BMP280;7827;53.594;9.938;2023-09-19T08:45:27;28903.53;;;-135.29
15453;BMP280;7827;53.594;9.938;2023-09-19T08:48:11;29054.38;;;-135.29
15453;BMP280;7827;53.594;9.938;2023-09-19T08:50:48;28549.63;;;-135.29
15453;BMP280;7827;53.594;9.938;2023-09-19T08:53:31;28938.34;;;-135.29
15453;BMP280;7827;53.594;9.938;2023-09-19T08:56:03;28845.50;;;-135.29
15453;BMP280;7827;53.594;9.938;2023-09-19T08:58:44;28762.34;;;-135.29
15453;BMP280;7827;53.594;9.938;2023-09-19T09:01:17;28671.44;;;-135.29
15453;BMP280;7827;53.594;9.938;2023-09-19T09:03:54;28640.50;;;-135.29
15453;BMP280;7827;53.594;9.938;2023-09-19T09:06:24;28621.16;;;-135.29
15453;BMP280;7827;53.594;9.938;2023-09-19T09:08:53;28389.13;;;-135.29
15453;BMP280;7827;53.594;9.938;2023-09-19T09:11:22;28362.06;;;-135.29
15453;BMP280;7827;53.594;9.938;2023-09-19T09:13:52;28066.22;;;-135.29
15453;BMP280;7827;53.594;9.938;2023-09-19T09:16:22;27698.91;;;-135.29
15453;BMP280;7827;53.594;9.938;2023-09-19T09:18:54;28068.16;;;-135.29
15453;BMP280;7827;53.594;9.938;2023-09-19T09:21:25;28031.41;;;-135.29
15453;BMP280;7827;53.594;9.938;2023-09-19T09:23:54;27805.22;;;-135.29
15453;BMP280;7827;53.594;9.938;2023-09-19T09:26:44;27876.75;;;-135.29
15453;BMP280;7827;53.594;9.938;2023-09-19T09:29:43;27782.03;;;-135.29
15453;BMP280;7827;53.594;9.938;2023-09-19T09:32:20;27845.81;;;-135.29
15453;BMP280;7827;53.594;9.938;2023-09-19T09:35:11;27822.63;;;-135.29
15453;BMP280;7827;53.594;9.938;2023-09-19T09:38:01;27412.81;;;-135.29
15453;BMP280;7827;53.594;9.938;2023-09-19T09:40:47;27341.28;;;-135.29
15453;BMP280;7827;53.594;9.938;2023-09-19T09:43:32;27215.63;;;-135.29
15453;BMP280;7827;53.594;9.938;2023-09-19T09:46:12;27049.41;;;-135.29
15453;BMP280;7827;53.594;9.938;2023-09-19T09:49:02;26749.88;;;-135.29
15453;BMP280;7827;53.594;9.938;2023-09-19T09:51:49;26906.41;;;-135.29
15453;BMP280;7827;53.594;9.938;2023-09-19T09:54:27;26744.06;;;-135.29
15453;BMP280;7827;53.594;9.938;2023-09-19T09:57:04;26659.03;;;-135.29
15453;BMP280;7827;53.594;9.938;2023-09-19T09:59:47;26618.47;;;-135.29
15453;BMP280;7827;53.594;9.938;2023-09-19T10:02:19;26494.78;;;-135.29
15453;BMP280;7827;53.594;9.938;2023-09-19T10:04:56;26504.44;;;-135.29
15453;BMP280;7827;53.594;9.938;2023-09-19T10:07:36;26608.78;;;-135.29
15453;BMP280;7827;53.594;9.938;2023-09-19T10:10:11;26098.69;;;-135.29
15453;BMP280;7827;53.594;9.938;2023-09-19T10:12:49;26135.41;;;-135.29
15453;BMP280;7827;53.594;9.938;2023-09-19T10:15:19;25942.19;;;-135.29
15453;BMP280;7827;53.594;9.938;2023-09-19T10:17:48;25946.06;;;-135.29
15453;BMP280;7827;53.594;9.938;2023-09-19T10:20:21;25893.91;;;-135.29
15453;BMP280;7827;53.594;9.938;2023-09-19T10:23:07;25741.28;;;-135.29
15453;BMP280;7827;53.594;9.938;2023-09-19T10:25:41;26065.84;;;-135.29
15453;BMP280;7827;53.594;9.938;2023-09-19T10:28:12;25953.78;;;-135.29
15453;BMP280;7827;53.594;9.938;2023-09-19T10:30:46;25876.50;;;-135.29
15453;BMP280;7827;53.594;9.938;2023-09-19T10:33:18;26282.25;;;-135.29
15453;BMP280;7827;53.594;9.938;2023-09-19T10:35:50;26232.00;;;-135.29
15453;BMP280;7827;53.594;9.938;2023-09-19T10:38:24;26147.00;;;-135.29
15453;BMP280;7827;53.594;9.938;2023-09-19T10:40:55;26170.19;;;-135.29
15453;BMP280;7827;53.594;9.938;2023-09-19T10:43:31;26251.31;;;-135.29
15453;BMP280;7827;53.594;9.938;2023-09-19T10:46:07;26230.06;;;-135.29
15453;BMP280;7827;53.594;9.938;2023-09-19T10:48:39;26069.72;;;-135.29
15453;BMP280;7827;53.594;9.938;2023-09-19T10:51:16;25934.47;;;-135.29
15453;BMP280;7827;53.594;9.938;2023-09-19T10:53:51;25453.47;;;-135.29
15453;BMP280;7827;53.594;9.938;2023-09-19T10:56:26;25395.50;;;-135.29
15453;BMP280;7827;53.594;9.938;2023-09-19T10:59:08;25358.81;;;-135.29
15453;BMP280;7827;53.594;9.938;2023-09-19T11:01:46;25553.91;;;-135.29
15453;BMP280;7827;53.594;9.938;2023-09-19T11:04:24;25752.88;;;-135.29
15453;BMP280;7827;53.594;9.938;2023-09-19T11:07:06;25617.66;;;-135.29
15453;BMP280;7827;53.594;9.938;2023-09-19T11:09:50;25573.22;;;-135.29
15453;BMP280;7827;53.594;9.938;2023-09-19T11:12:49;25660.16;;;-135.29
15453;BMP280;7827;53.594;9.938;2023-09-19T11:18:56;25920.94;;;-135.29
15453;BMP280;7827;53.594;9.938;2023-09-19T11:21:53;25646.63;;;-135.29
15453;BMP280;7827;53.594;9.938;2023-09-19T11:24:31;25834.00;;;-135.29
15453;BMP280;7827;53.594;9.938;2023-09-19T11:27:16;25926.75;;;-135.29
15453;BMP280;7827;53.594;9.938;2023-09-19T11:29:45;25517.19;;;-135.29
15453;BMP280;7827;53.594;9.938;2023-09-19T11:32:15;25459.25;;;-135.29
15453;BMP280;7827;53.594;9.938;2023-09-19T11:34:48;25200.44;;;-135.29
15453;BMP280;7827;53.594;9.938;2023-09-19T11:38:10;24771.69;;;-135.29
15453;BMP280;7827;53.594;9.938;2023-09-19T11:40:47;24271.56;;;-135.29
15453;BMP280;7827;53.594;9.938;2023-09-19T11:43:31;24706.03;;;-135.29
15453;BMP280;7827;53.594;9.938;2023-09-19T11:46:06;24659.69;;;-135.29
15453;BMP280;7827;53.594;9.938;2023-09-19T11:48:41;25215.88;;;-135.29
15453;BMP280;7827;53.594;9.938;2023-09-19T11:51:16;25011.16;;;-135.29
15453;BMP280;7827;53.594;9.938;2023-09-19T11:53:50;24798.72;;;-135.29
15453;BMP280;7827;53.594;9.938;2023-09-19T11:56:22;25026.59;;;-135.29
15453;BMP280;7827;53.594;9.938;2023-09-19T11:58:53;24903.00;;;-135.29
15453;BMP280;7827;53.594;9.938;2023-09-19T12:01:25;24373.91;;;-135.29
15453;BMP280;7827;53.594;9.938;2023-09-19T12:03:58;24704.09;;;-135.29
15453;BMP280;7827;53.594;9.938;2023-09-19T12:06:29;24740.78;;;-135.29
15453;BMP280;7827;53.594;9.938;2023-09-19T12:08:58;24773.63;;;-135.29
15453;BMP280;7827;53.594;9.938;2023-09-19T12:11:42;24644.25;;;-135.29
15453;BMP280;7827;53.594;9.938;2023-09-19T12:14:12;25026.59;;;-135.29
15453;BMP280;7827;53.594;9.938;2023-09-19T12:16:53;24976.41;;;-135.29
15453;BMP280;7827;53.594;9.938;2023-09-19T12:19:23;24439.56;;;-135.29
15453;BMP280;7827;53.594;9.938;2023-09-19T12:21:59;24744.66;;;-135.29
15453;BMP280;7827;53.594;9.938;2023-09-19T12:24:33;24953.22;;;-135.29
15453;BMP280;7827;53.594;9.938;2023-09-19T12:27:07;24427.97;;;-135.29
15453;BMP280;7827;53.594;9.938;2023-09-19T12:29:45;24076.56;;;-135.29
15453;BMP280;7827;53.594;9.938;2023-09-19T12:32:13;24041.81;;;-135.29
15453;BMP280;7827;53.594;9.938;2023-09-19T12:34:51;23586.22;;;-135.29
15453;BMP280;7827;53.594;9.938;2023-09-19T12:37:22;23873.88;;;-135.29
15453;BMP280;7827;53.594;9.938;2023-09-19T12:40:05;23482.00;;;-135.29
15453;BMP280;7827;53.594;9.938;2023-09-19T12:42:45;23192.47;;;-135.29
15453;BMP280;7827;53.594;9.938;2023-09-19T12:45:15;23260.03;;;-135.29
15453;BMP280;7827;53.594;9.938;2023-09-19T12:48:23;23140.38;;;-135.29
15453;BMP280;7827;53.594;9.938;2023-09-19T12:51:03;23323.72;;;-135.29
15453;BMP280;7827;53.594;9.938;2023-09-19T12:53:35;23068.97;;;-135.29
15453;BMP280;7827;53.594;9.938;2023-09-19T12:56:09;23032.28;;;-135.29
15453;BMP280;7827;53.594;9.938;2023-09-19T12:58:51;23041.94;;;-135.29
15453;BMP280;7827;53.594;9.938;2023-09-19T13:01:23;23254.25;;;-135.29
15453;BMP280;7827;53.594;9.938;2023-09-19T13:04:15;23364.25;;;-135.29
15453;BMP280;7827;53.594;9.938;2023-09-19T13:06:46;23076.69;;;-135.29
15453;BMP280;7827;53.594;9.938;2023-09-19T13:09:17;22852.81;;;-135.29
15453;BMP280;7827;53.594;9.938;2023-09-19T13:11:48;22906.84;;;-135.29
15453;BMP280;7827;53.594;9.938;2023-09-19T13:14:22;22848.97;;;-135.29
15453;BMP280;7827;53.594;9.938;2023-09-19T13:17:01;23011.06;;;-135.29
15453;BMP280;7827;53.594;9.938;2023-09-19T13:19:39;23028.44;;;-135.29
15453;BMP280;7827;53.594;9.938;2023-09-19T13:22:36;22970.53;;;-135.29
15453;BMP280;7827;53.594;9.938;2023-09-19T13:25:08;22914.56;;;-135.29
15453;BMP280;7827;53.594;9.938;2023-09-19T13:27:42;22889.50;;;-135.29
15453;BMP280;7827;53.594;9.938;2023-09-19T13:30:14;22108.03;;;-135.29
15453;BMP280;7827;53.594;9.938;2023-09-19T13:32:43;22054.00;;;-135.29
15453;BMP280;7827;53.594;9.938;2023-09-19T13:35:12;22106.09;;;-135.29
15453;BMP280;7827;53.594;9.938;2023-09-19T13:37:42;22318.31;;;-135.29
15453;BMP280;7827;53.594;9.938;2023-09-19T13:40:15;22285.53;;;-135.29
15453;BMP280;7827;53.594;9.938;2023-09-19T13:42:43;22316.41;;;-135.29
15453;BMP280;7827;53.594;9.938;2023-09-19T13:45:16;22210.28;;;-135.29
15453;BMP280;7827;53.594;9.938;2023-09-19T13:47:49;22088.72;;;-135.29
15453;BMP280;7827;53.594;9.938;2023-09-19T13:50:17;22179.41;;;-135.29
15453;BMP280;7827;53.594;9.938;2023-09-19T13:52:51;22544.06;;;-135.29
15453;BMP280;7827;53.594;9.938;2023-09-19T13:55:20;22343.41;;;-135.29
15453;BMP280;7827;53.594;9.938;2023-09-19T13:57:49;22212.22;;;-135.29
15453;BMP280;7827;53.594;9.938;2023-09-19T14:00:21;22273.94;;;-135.29
15453;BMP280;7827;53.594;9.938;2023-09-19T14:02:50;22395.50;;;-135.29
15453;BMP280;7827;53.594;9.938;2023-09-19T14:05:19;23003.34;;;-135.29
15453;BMP280;7827;53.594;9.938;2023-09-19T14:07:48;23273.53;;;-135.29
15453;BMP280;7827;53.594;9.938;2023-09-19T14:10:17;23310.22;;;-135.29
15453;BMP280;7827;53.594;9.938;2023-09-19T14:12:46;23207.91;;;-135.29
15453;BMP280;7827;53.594;9.938;2023-09-19T14:15:14;22760.19;;;-135.29
15453;BMP280;7827;53.594;9.938;2023-09-19T14:17:49;23036.16;;;-135.29
15453;BMP280;7827;53.594;9.938;2023-09-19T14:20:17;22953.16;;;-135.29
15453;BMP280;7827;53.594;9.938;2023-09-19T14:22:46;22708.09;;;-135.29
15453;BMP280;7827;53.594;9.938;2023-09-19T14:25:15;23258.09;;;-135.29
15453;BMP280;7827;53.594;9.938;2023-09-19T14:27:44;23142.31;;;-135.29
15453;BMP280;7827;53.594;9.938;2023-09-19T14:30:13;23246.53;;;-135.29
15453;BMP280;7827;53.594;9.938;2023-09-19T14:32:41;23177.03;;;-135.29
15453;BMP280;7827;53.594;9.938;2023-09-19T14:35:11;23169.31;;;-135.29
15453;BMP280;7827;53.594;9.938;2023-09-19T14:37:41;22821.94;;;-135.29